BIIS

Ísafjörður Airport

Ísafjörður, Iceland

BIIS 210949Z VRB05KT 9999 FEW030 10/02 Q1003

Observed Flight Rules
Sep-21 @ 09:49 UTC (30 minutes ago)
 
Visual Flight Rules
Wind Visibility Clouds
Variable at 5 knots 10,000+ meters
  • Few at 3,000' AGL
Temperatures Readings
Current 10°C / 50°F
Dewpoint 2°C / 36°F
Humidity 58%
Altimeter 29.62" Hg
Pressure 1003 hPa
Elevation 3
Observed Flight Rules
Sep-21 @ 09:49 UTC
(30 minutes ago)
 
VFR
Wind Visibility
Variable at 5 knots 10,000+ meters
Clouds
  • Few at 3,000' AGL
Temperature Dewpoint
10°C / 50°F 2°C / 36°F
Humidity Altimeter Pressure
58% 29.62" Hg 1003 hPa